EDHL/LBC METAR and TAF weather

Enter ICAO airport designator
Station Type Date Time Source
EDHL METAR 2019/12/14 18:50 UTC NOAA

EDHL 141850Z 22011KT CAVOK 05/02 Q0989


Station Type Date Time Source
EDHL Decoded METAR 2019/12/14 18:50 UTC NOAA

Luebeck-Blankensee, Germany (EDHL) 53-49N 010-42E 15M
Dec 14, 2019 - 01:50 PM EST / 2019.12.14 1850 UTC
Wind: from the SW (220 degrees) at 13 MPH (11 KT):0
Visibility: greater than 7 mile(s):0
Temperature: 41 F (5 C)
Dew Point: 35 F (2 C)
Relative Humidity: 80%
Pressure (altimeter): 29.21 in. Hg (0989 hPa)
ob: EDHL 141850Z 22011KT CAVOK 05/02 Q0989
cycle: 19

Station Type Date Time Source
EDHL TAF 2010/02/22 14:20 UTC NOAA

METAR EDHL 221420Z 15004KT 110V180 9999 FEW039 SCT120 05/02 Q0990
RMK X

Example: see airport list